createdAt,value
2023-01-05T00:01:39.956Z,81.91
2023-01-05T00:04:07.330Z,82.95
2023-01-05T00:06:34.459Z,84.21
2023-01-05T00:09:01.415Z,85.37
2023-01-05T00:11:46.749Z,86.09
2023-01-05T00:14:37.553Z,83.21
2023-01-05T00:17:22.898Z,83.66
2023-01-05T00:20:08.305Z,83.55
2023-01-05T00:22:43.256Z,86.53
2023-01-05T00:25:15.514Z,83.84
2023-01-05T00:27:43.564Z,84.86
2023-01-05T00:30:11.639Z,84.66
2023-01-05T00:32:38.193Z,85.29
2023-01-05T00:35:04.932Z,84.10
2023-01-05T00:37:33.803Z,85.34
2023-01-05T00:40:00.373Z,84.56
2023-01-05T00:42:26.981Z,84.41
2023-01-05T00:44:53.418Z,84.28
2023-01-05T00:47:19.923Z,83.61
2023-01-05T00:49:46.372Z,84.23
2023-01-05T00:52:12.794Z,85.88
2023-01-05T00:54:39.322Z,82.70
2023-01-05T00:57:07.306Z,84.36
2023-01-05T00:59:33.910Z,82.69
2023-01-05T01:02:00.533Z,84.82
2023-01-05T01:04:27.092Z,84.04
2023-01-05T01:06:54.546Z,85.92
2023-01-05T01:09:21.400Z,85.59
2023-01-05T01:11:47.881Z,84.59
2023-01-05T01:14:14.444Z,84.03
2023-01-05T01:16:42.210Z,83.77
2023-01-05T01:19:13.508Z,83.17
2023-01-05T01:21:39.993Z,83.20
2023-01-05T01:24:06.782Z,82.98
2023-01-05T01:26:33.368Z,81.35
2023-01-05T01:28:59.833Z,81.12
2023-01-05T01:31:26.387Z,81.25
2023-01-05T01:33:52.772Z,80.46
2023-01-05T01:36:19.180Z,79.93
2023-01-05T01:38:45.819Z,79.71
2023-01-05T01:41:13.912Z,77.26
2023-01-05T01:43:49.780Z,79.20
2023-01-05T01:46:17.763Z,79.58
2023-01-05T01:48:51.364Z,78.41
2023-01-05T01:51:27.589Z,80.06
2023-01-05T01:53:58.650Z,78.93
2023-01-05T01:56:27.340Z,78.75
2023-01-05T01:58:54.218Z,78.10
2023-01-05T02:01:20.975Z,78.08
2023-01-05T02:03:47.733Z,76.89
2023-01-05T02:06:14.444Z,78.91
2023-01-05T02:08:41.019Z,77.72
2023-01-05T02:11:30.129Z,76.59
2023-01-05T02:14:11.702Z,75.70
2023-01-05T02:17:04.776Z,77.21
2023-01-05T02:19:55.558Z,77.53
2023-01-05T02:22:40.622Z,75.89
2023-01-05T02:25:28.488Z,76.01
2023-01-05T02:28:17.802Z,76.59
2023-01-05T02:31:13.626Z,76.81
2023-01-05T02:36:34.820Z,77.70
2023-01-05T02:39:01.192Z,75.07
2023-01-05T02:41:53.874Z,78.10
2023-01-05T02:44:20.873Z,76.61
2023-01-05T02:46:58.809Z,78.01
2023-01-05T02:49:25.330Z,77.92
2023-01-05T02:51:59.981Z,78.29
2023-01-05T02:54:46.678Z,77.63
2023-01-05T02:57:20.075Z,77.17
2023-01-05T02:59:54.295Z,78.39
2023-01-05T03:02:26.230Z,79.55
2023-01-05T03:04:58.776Z,82.29
2023-01-05T03:07:29.573Z,80.75
2023-01-05T03:09:56.368Z,82.38
2023-01-05T03:12:50.962Z,82.67
2023-01-05T03:15:31.013Z,82.89
2023-01-05T03:18:00.678Z,82.96
2023-01-05T03:20:31.425Z,80.69
2023-01-05T03:23:18.911Z,86.12
2023-01-05T03:26:06.526Z,84.89
2023-01-05T03:28:59.510Z,86.18
2023-01-05T03:32:03.306Z,86.21
2023-01-05T03:35:24.604Z,85.83
2023-01-05T03:38:17.868Z,86.57
2023-01-05T03:40:46.220Z,86.91
2023-01-05T03:43:13.434Z,87.23
2023-01-05T03:45:52.628Z,87.49
2023-01-05T03:48:20.978Z,85.76
2023-01-05T03:50:48.132Z,85.52
2023-01-05T03:53:14.583Z,85.46
2023-01-05T03:55:41.120Z,88.30
2023-01-05T03:58:07.652Z,87.63
2023-01-05T04:00:34.050Z,86.96
2023-01-05T04:03:00.739Z,87.33
2023-01-05T04:05:27.308Z,86.85
2023-01-05T04:07:53.733Z,84.73
2023-01-05T04:10:20.174Z,83.04
2023-01-05T04:12:48.166Z,83.44
2023-01-05T04:15:14.841Z,82.83
2023-01-05T04:17:41.314Z,83.72
2023-01-05T04:20:08.141Z,84.91
2023-01-05T04:22:34.569Z,83.77
2023-01-05T04:25:00.981Z,85.73
2023-01-05T04:27:27.452Z,86.76
2023-01-05T04:29:53.868Z,81.64
2023-01-05T04:32:20.291Z,84.17
2023-01-05T04:34:46.693Z,84.13
2023-01-05T04:37:13.114Z,83.38
2023-01-05T04:39:39.569Z,85.62
2023-01-05T04:42:06.035Z,84.91
2023-01-05T04:44:32.437Z,84.96
2023-01-05T04:46:59.061Z,84.29
2023-01-05T04:49:25.533Z,83.42
2023-01-05T04:51:52.289Z,82.65
2023-01-05T04:54:18.724Z,83.39
2023-01-05T04:56:45.258Z,84.53
2023-01-05T04:59:11.703Z,84.98
2023-01-05T05:01:38.557Z,83.61
2023-01-05T05:04:05.142Z,84.57
2023-01-05T05:06:31.616Z,84.12
2023-01-05T05:08:58.050Z,85.72
2023-01-05T05:11:24.531Z,84.18
2023-01-05T05:13:50.952Z,84.05
2023-01-05T05:16:17.678Z,83.84
2023-01-05T05:18:44.133Z,81.23
2023-01-05T05:21:10.603Z,83.96
2023-01-05T05:23:37.052Z,85.03
2023-01-05T05:26:03.484Z,84.91
2023-01-05T05:28:29.914Z,83.86
2023-01-05T05:30:57.371Z,82.62
2023-01-05T05:33:24.994Z,83.23
2023-01-05T05:35:51.650Z,82.92
2023-01-05T05:38:18.153Z,86.44
2023-01-05T05:40:44.768Z,85.02
2023-01-05T05:43:11.201Z,85.40
2023-01-05T05:45:37.611Z,83.23
2023-01-05T05:48:04.132Z,84.37
2023-01-05T05:50:30.553Z,82.87
2023-01-05T05:52:57.010Z,84.15
2023-01-05T05:55:23.436Z,85.88
2023-01-05T05:57:49.876Z,85.79
2023-01-05T06:00:16.575Z,85.13
2023-01-05T06:02:43.120Z,86.04
2023-01-05T06:05:09.816Z,85.60
2023-01-05T06:07:36.253Z,85.89
2023-01-05T06:10:02.687Z,84.95
2023-01-05T06:12:29.295Z,84.11
2023-01-05T06:14:55.821Z,83.25
2023-01-05T06:17:22.483Z,84.25
2023-01-05T06:19:49.039Z,81.94
2023-01-05T06:22:15.460Z,81.75
2023-01-05T06:24:41.952Z,83.14
2023-01-05T06:27:08.434Z,82.07
2023-01-05T06:29:34.847Z,82.01
2023-01-05T06:32:01.340Z,81.82
2023-01-05T06:34:27.752Z,81.78
2023-01-05T06:37:00.540Z,80.63
2023-01-05T06:39:28.593Z,79.25
2023-01-05T06:41:55.067Z,80.30
2023-01-05T06:44:21.578Z,81.00
2023-01-05T06:46:48.019Z,81.74
2023-01-05T06:49:14.849Z,82.90
2023-01-05T06:51:41.375Z,83.52
2023-01-05T06:54:07.975Z,81.76
2023-01-05T06:56:34.456Z,80.72
2023-01-05T06:59:00.886Z,81.14
2023-01-05T07:01:27.524Z,82.92
2023-01-05T07:03:54.048Z,84.17
2023-01-05T07:06:20.497Z,85.76
2023-01-05T07:08:46.994Z,83.90
2023-01-05T07:11:13.965Z,86.76
2023-01-05T07:13:40.668Z,85.75
2023-01-05T07:16:07.467Z,85.33
2023-01-05T07:18:33.967Z,84.88
2023-01-05T07:21:00.778Z,82.85
2023-01-05T07:23:27.409Z,86.90
2023-01-05T07:25:53.810Z,85.88
2023-01-05T07:28:20.226Z,86.18
2023-01-05T07:30:55.824Z,86.13
2023-01-05T07:33:22.277Z,86.26
2023-01-05T07:35:48.695Z,87.38
2023-01-05T07:38:15.145Z,89.23
2023-01-05T07:40:41.554Z,86.00
2023-01-05T07:43:08.049Z,86.27
2023-01-05T07:45:34.569Z,85.95
2023-01-05T07:48:02.907Z,84.68
2023-01-05T07:50:29.686Z,83.90
2023-01-05T07:52:58.218Z,84.95
2023-01-05T07:55:24.679Z,84.36
2023-01-05T07:57:51.132Z,83.54
2023-01-05T08:00:17.817Z,84.27
2023-01-05T08:02:44.529Z,82.37
2023-01-05T08:05:10.984Z,84.46
2023-01-05T08:07:37.477Z,86.23
2023-01-05T08:10:23.050Z,85.94
2023-01-05T08:13:07.888Z,84.29
2023-01-05T08:15:34.410Z,85.11
2023-01-05T08:18:00.911Z,84.79
2023-01-05T08:20:27.334Z,83.23
2023-01-05T08:22:54.085Z,82.34
2023-01-05T08:25:20.763Z,86.79
2023-01-05T08:27:47.755Z,85.45
2023-01-05T08:30:14.632Z,84.90
2023-01-05T08:32:41.610Z,86.08
2023-01-05T08:35:08.797Z,84.13
2023-01-05T08:37:35.256Z,84.79
2023-01-05T08:40:01.683Z,83.13
2023-01-05T08:42:28.141Z,84.92
2023-01-05T08:44:54.588Z,83.44
2023-01-05T08:47:26.490Z,85.16
2023-01-05T08:49:54.470Z,85.97
2023-01-05T08:52:23.176Z,85.13
2023-01-05T08:54:50.615Z,83.13
2023-01-05T08:57:17.130Z,84.81
2023-01-05T08:59:43.611Z,84.48
2023-01-05T09:02:12.645Z,84.27
2023-01-05T09:04:39.246Z,84.17
2023-01-05T09:07:05.709Z,83.70
2023-01-05T09:09:32.165Z,85.42
2023-01-05T09:11:58.641Z,85.66
2023-01-05T09:14:25.121Z,84.32
2023-01-05T09:17:08.084Z,85.19
2023-01-05T09:19:34.932Z,84.95
2023-01-05T09:22:01.403Z,84.53
2023-01-05T09:24:27.865Z,82.75
2023-01-05T09:26:54.454Z,85.15
2023-01-05T09:29:21.045Z,85.07
2023-01-05T09:31:47.490Z,83.26
2023-01-05T09:34:14.402Z,83.53
2023-01-05T09:36:40.865Z,84.23
2023-01-05T09:39:07.416Z,83.88
2023-01-05T09:41:42.091Z,85.76
2023-01-05T09:44:26.274Z,83.24
2023-01-05T09:46:55.792Z,82.99
2023-01-05T09:49:24.868Z,81.16
2023-01-05T09:51:57.928Z,85.93
2023-01-05T09:54:27.935Z,82.39
2023-01-05T09:57:13.170Z,84.16
2023-01-05T09:59:44.950Z,83.21
2023-01-05T10:02:37.213Z,83.26
2023-01-05T10:05:05.795Z,83.61
2023-01-05T10:07:44.414Z,84.88
2023-01-05T10:10:24.722Z,84.40
2023-01-05T10:13:06.941Z,83.55
2023-01-05T10:15:45.263Z,84.61
2023-01-05T10:18:34.682Z,84.38
2023-01-05T10:21:38.246Z,84.54
2023-01-05T10:24:31.128Z,83.22
2023-01-05T10:27:27.095Z,84.84
2023-01-05T10:30:05.303Z,82.61
2023-01-05T10:32:51.800Z,82.53
2023-01-05T10:38:48.017Z,77.65
2023-01-05T10:41:43.411Z,77.56
2023-01-05T10:44:46.742Z,75.83
2023-01-05T10:47:13.495Z,76.14
2023-01-05T10:49:43.818Z,76.54
2023-01-05T10:52:19.138Z,77.15
2023-01-05T10:54:56.734Z,75.16
2023-01-05T10:57:34.846Z,74.69
2023-01-05T11:00:02.045Z,74.81
2023-01-05T11:02:31.909Z,80.43
2023-01-05T11:05:05.556Z,80.33
2023-01-05T11:07:32.689Z,82.04
2023-01-05T11:09:59.398Z,80.41
2023-01-05T11:12:26.163Z,81.53
2023-01-05T11:14:59.167Z,83.92
2023-01-05T11:17:28.015Z,83.60
2023-01-05T11:19:57.376Z,82.67
2023-01-05T11:22:36.916Z,82.40
2023-01-05T11:25:21.438Z,80.92
2023-01-05T11:28:05.442Z,82.92
2023-01-05T11:30:33.478Z,82.09
2023-01-05T11:33:01.685Z,82.64
2023-01-05T11:35:35.348Z,82.81
2023-01-05T11:38:02.110Z,82.27
2023-01-05T11:40:35.769Z,82.41
2023-01-05T11:43:11.157Z,79.79
2023-01-05T11:45:46.254Z,82.10
2023-01-05T11:48:19.578Z,81.92
2023-01-05T11:50:49.085Z,80.58
2023-01-05T11:53:35.957Z,83.45
2023-01-05T11:56:25.497Z,80.81
2023-01-05T11:58:57.877Z,80.00
2023-01-05T12:01:38.718Z,81.53
2023-01-05T12:04:10.937Z,79.98
2023-01-05T12:07:08.304Z,81.13
2023-01-05T12:09:38.041Z,79.64
2023-01-05T12:12:46.705Z,76.70
2023-01-05T12:15:41.087Z,79.70
2023-01-05T12:18:27.573Z,79.30
2023-01-05T12:21:13.670Z,77.91
2023-01-05T12:24:14.528Z,79.18
2023-01-05T12:26:49.311Z,78.53
2023-01-05T12:31:02.761Z,78.86
2023-01-05T12:35:51.767Z,78.35
2023-01-05T12:38:37.457Z,80.06
2023-01-05T12:41:18.999Z,79.75
2023-01-05T12:44:05.732Z,80.22
2023-01-05T12:47:05.632Z,79.78
2023-01-05T12:49:39.579Z,80.63
2023-01-05T12:52:15.087Z,82.05
2023-01-05T12:55:06.366Z,78.86
2023-01-05T12:57:48.749Z,79.02
2023-01-05T13:00:18.876Z,79.96
2023-01-05T13:02:56.643Z,81.83
2023-01-05T13:05:43.090Z,82.15
2023-01-05T13:08:17.257Z,78.62
2023-01-05T13:10:57.618Z,78.90
2023-01-05T13:13:30.053Z,80.88
2023-01-05T13:16:06.199Z,81.27
2023-01-05T13:18:37.143Z,78.30
2023-01-05T13:21:12.808Z,80.23
2023-01-05T13:23:47.277Z,79.87
2023-01-05T13:26:18.827Z,79.23
2023-01-05T13:28:55.835Z,79.01
2023-01-05T13:32:03.741Z,77.32
2023-01-05T13:34:54.855Z,80.41
2023-01-05T13:37:33.369Z,77.43
2023-01-05T13:40:34.392Z,79.17
2023-01-05T13:43:28.144Z,78.31
2023-01-05T13:46:15.698Z,76.47
2023-01-05T13:49:04.053Z,75.71
2023-01-05T13:51:53.827Z,75.89
2023-01-05T13:54:43.493Z,73.92
2023-01-05T13:57:19.717Z,76.48
2023-01-05T13:59:59.954Z,73.97
2023-01-05T14:02:38.575Z,75.83
2023-01-05T14:05:15.493Z,74.18
2023-01-05T14:07:42.180Z,76.65
2023-01-05T14:10:23.120Z,76.27
2023-01-05T14:12:51.695Z,76.36
2023-01-05T14:15:33.330Z,76.21
2023-01-05T14:18:07.583Z,76.49
2023-01-05T14:20:44.969Z,78.18
2023-01-05T14:23:26.355Z,75.60
2023-01-05T14:25:52.838Z,77.91
2023-01-05T14:28:21.249Z,75.89
2023-01-05T14:30:50.417Z,77.16
2023-01-05T14:33:19.207Z,79.20
2023-01-05T14:35:46.335Z,78.19
2023-01-05T14:38:24.929Z,78.75
2023-01-05T14:40:55.803Z,77.32
2023-01-05T14:43:37.171Z,74.91
2023-01-05T14:46:09.989Z,74.24
2023-01-05T14:48:42.721Z,77.51
2023-01-05T14:51:15.343Z,77.25
2023-01-05T14:53:45.660Z,77.69
2023-01-05T14:56:17.038Z,79.67
2023-01-05T14:58:43.379Z,80.57
2023-01-05T15:01:16.161Z,77.60
2023-01-05T15:03:55.244Z,78.46
2023-01-05T15:06:39.955Z,77.21
2023-01-05T15:09:37.024Z,74.90
2023-01-05T15:12:28.374Z,80.51
2023-01-05T15:15:12.972Z,78.65
2023-01-05T15:18:07.503Z,79.51
2023-01-05T15:20:52.230Z,81.36
2023-01-05T15:23:24.517Z,82.36
2023-01-05T15:26:08.170Z,79.71
2023-01-05T15:28:56.270Z,81.49
2023-01-05T15:31:48.604Z,80.29
2023-01-05T15:34:24.582Z,76.69
2023-01-05T15:37:04.947Z,79.06
2023-01-05T15:39:47.579Z,80.49
2023-01-05T15:42:20.048Z,79.09
2023-01-05T15:44:49.171Z,80.31
2023-01-05T15:47:18.187Z,80.62
2023-01-05T15:49:45.604Z,80.87
2023-01-05T15:52:24.000Z,77.34
2023-01-05T15:55:17.259Z,78.84
2023-01-05T15:57:52.472Z,80.01
2023-01-05T16:00:23.365Z,80.37
2023-01-05T16:02:50.441Z,79.83
2023-01-05T16:05:27.765Z,78.83
2023-01-05T16:08:15.802Z,78.74
2023-01-05T16:10:48.795Z,78.96
2023-01-05T16:13:18.900Z,80.33
2023-01-05T16:15:52.203Z,79.30
2023-01-05T16:18:24.721Z,80.63
2023-01-05T16:20:53.332Z,77.80
2023-01-05T16:23:32.736Z,78.46
2023-01-05T16:25:59.736Z,78.19
2023-01-05T16:28:26.766Z,78.46
2023-01-05T16:30:54.731Z,77.23
2023-01-05T16:33:23.746Z,76.59
2023-01-05T16:35:55.519Z,74.85
2023-01-05T16:38:21.886Z,79.23
2023-01-05T16:40:48.239Z,77.64
2023-01-05T16:43:20.648Z,76.26
2023-01-05T16:45:47.495Z,77.56
2023-01-05T16:48:35.803Z,76.52
2023-01-05T16:51:09.514Z,78.75
2023-01-05T16:53:42.481Z,76.53
2023-01-05T16:56:28.551Z,75.49
2023-01-05T16:58:54.979Z,76.49
2023-01-05T17:01:36.016Z,76.84
2023-01-05T17:04:13.084Z,75.49
2023-01-05T17:06:41.910Z,76.88
2023-01-05T17:09:21.355Z,75.28
2023-01-05T17:11:47.832Z,74.38
2023-01-05T17:14:15.444Z,74.92
2023-01-05T17:16:42.134Z,75.99
2023-01-05T17:19:19.821Z,78.96
2023-01-05T17:21:53.693Z,75.91
2023-01-05T17:24:20.284Z,78.64
2023-01-05T17:26:46.856Z,75.39
2023-01-05T17:29:25.838Z,73.99
2023-01-05T17:31:52.928Z,74.24
2023-01-05T17:34:20.131Z,75.90
2023-01-05T17:36:49.156Z,75.51
2023-01-05T17:39:18.024Z,75.08
2023-01-05T17:41:44.685Z,75.82
2023-01-05T17:44:11.440Z,75.61
2023-01-05T17:46:41.547Z,76.04
2023-01-05T17:49:14.418Z,74.76
2023-01-05T17:51:40.842Z,74.29
2023-01-05T17:54:07.346Z,74.15
2023-01-05T17:56:33.822Z,74.44
2023-01-05T17:59:00.240Z,75.17
2023-01-05T18:01:26.747Z,76.81
2023-01-05T18:03:53.238Z,78.38
2023-01-05T18:06:19.782Z,78.88
2023-01-05T18:08:46.308Z,78.24
2023-01-05T18:11:14.813Z,78.37
2023-01-05T18:16:13.570Z,79.86
2023-01-05T18:18:40.277Z,79.98
2023-01-05T18:21:07.395Z,81.08
2023-01-05T18:23:34.001Z,80.28
2023-01-05T18:26:08.985Z,78.18
2023-01-05T18:28:36.536Z,77.33
2023-01-05T18:31:16.083Z,81.16
2023-01-05T18:33:42.767Z,80.37
2023-01-05T18:36:13.484Z,77.77
2023-01-05T18:38:40.361Z,80.37
2023-01-05T18:41:07.120Z,77.27
2023-01-05T18:43:34.211Z,78.81
2023-01-05T18:46:01.110Z,77.95
2023-01-05T18:48:27.551Z,78.31
2023-01-05T18:50:54.468Z,77.99
2023-01-05T18:53:21.996Z,77.60
2023-01-05T18:55:48.525Z,80.00
2023-01-05T18:58:15.289Z,78.41
2023-01-05T19:00:43.701Z,81.24
2023-01-05T19:03:10.875Z,79.55
2023-01-05T19:05:40.683Z,78.92
2023-01-05T19:08:11.548Z,78.12
2023-01-05T19:10:38.444Z,79.95
2023-01-05T19:13:05.049Z,79.82
2023-01-05T19:15:35.872Z,77.72
2023-01-05T19:18:02.881Z,77.90
2023-01-05T19:20:29.509Z,77.89
2023-01-05T19:22:55.938Z,78.29
2023-01-05T19:25:22.337Z,77.92
2023-01-05T19:27:48.767Z,77.94
2023-01-05T19:30:17.589Z,76.48
2023-01-05T19:32:44.103Z,76.71
2023-01-05T19:35:10.582Z,77.85
2023-01-05T19:37:39.048Z,76.12
2023-01-05T19:40:05.956Z,76.04
2023-01-05T19:42:32.389Z,76.09
2023-01-05T19:44:59.653Z,76.31
2023-01-05T19:47:26.321Z,76.50
2023-01-05T19:49:53.173Z,76.62
2023-01-05T19:52:19.765Z,76.65
2023-01-05T19:54:46.487Z,76.57
2023-01-05T19:57:13.056Z,76.95
2023-01-05T19:59:39.497Z,77.09
2023-01-05T20:02:06.573Z,76.76
2023-01-05T20:04:33.479Z,77.15
2023-01-05T20:07:03.939Z,76.77
2023-01-05T20:09:30.684Z,76.28
2023-01-05T20:12:09.050Z,76.82
2023-01-05T20:14:39.285Z,77.05
2023-01-05T20:17:08.233Z,76.85
2023-01-05T20:19:36.034Z,76.46
2023-01-05T20:22:04.722Z,76.18
2023-01-05T20:24:32.826Z,77.00
2023-01-05T20:27:02.514Z,76.16
2023-01-05T20:29:31.177Z,76.73
2023-01-05T20:32:01.241Z,76.15
2023-01-05T20:34:31.869Z,76.98
2023-01-05T20:37:03.884Z,76.41
2023-01-05T20:39:31.458Z,77.15
2023-01-05T20:42:04.532Z,77.52
2023-01-05T20:44:34.444Z,77.34
2023-01-05T20:47:02.976Z,76.81
2023-01-05T20:49:30.368Z,76.02
2023-01-05T20:51:56.824Z,76.98
2023-01-05T20:54:23.353Z,77.20
2023-01-05T20:56:49.857Z,76.98
2023-01-05T20:59:22.495Z,76.69
2023-01-05T21:01:50.177Z,76.13
2023-01-05T21:04:17.211Z,76.10
2023-01-05T21:06:43.892Z,76.68
2023-01-05T21:09:10.712Z,76.60
2023-01-05T21:11:37.399Z,75.88
2023-01-05T21:14:06.633Z,76.29
2023-01-05T21:16:42.936Z,76.15
2023-01-05T21:19:12.436Z,75.95
2023-01-05T21:21:38.847Z,77.33
2023-01-05T21:24:07.784Z,77.13
2023-01-05T21:26:34.599Z,76.56
2023-01-05T21:29:01.105Z,75.80
2023-01-05T21:31:27.636Z,76.42
2023-01-05T21:33:54.301Z,76.74
2023-01-05T21:36:26.279Z,75.95
2023-01-05T21:39:00.842Z,76.86
2023-01-05T21:41:48.009Z,76.39
2023-01-05T21:44:15.074Z,76.55
2023-01-05T21:46:42.633Z,76.77
2023-01-05T21:49:10.180Z,75.96
2023-01-05T21:51:55.266Z,76.07
2023-01-05T21:54:40.610Z,76.14
2023-01-05T21:57:07.352Z,76.26
2023-01-05T21:59:33.822Z,76.52
2023-01-05T22:02:00.484Z,76.15
2023-01-05T22:04:26.935Z,76.63
2023-01-05T22:06:53.434Z,76.25
2023-01-05T22:09:19.874Z,76.70
2023-01-05T22:11:46.405Z,77.31
2023-01-05T22:14:13.249Z,77.79
2023-01-05T22:16:39.971Z,77.39
2023-01-05T22:19:06.501Z,76.38
2023-01-05T22:21:33.058Z,76.71
2023-01-05T22:23:59.548Z,76.83
2023-01-05T22:26:26.007Z,76.46
2023-01-05T22:28:52.474Z,77.12
2023-01-05T22:31:22.591Z,76.85
2023-01-05T22:33:51.405Z,77.74
2023-01-05T22:36:19.490Z,77.62
2023-01-05T22:38:47.605Z,77.04
2023-01-05T22:41:16.819Z,76.66
2023-01-05T22:43:43.693Z,76.04
2023-01-05T22:46:13.387Z,75.28
2023-01-05T22:48:41.992Z,75.64
2023-01-05T22:51:09.941Z,76.07
2023-01-05T22:53:36.341Z,75.52
2023-01-05T22:56:02.840Z,75.80
2023-01-05T22:58:29.237Z,75.31
2023-01-05T23:00:55.781Z,74.94
2023-01-05T23:03:22.750Z,75.21
2023-01-05T23:05:49.184Z,75.28
2023-01-05T23:08:15.596Z,75.23
2023-01-05T23:10:42.018Z,76.19
2023-01-05T23:13:08.539Z,75.70
2023-01-05T23:15:34.983Z,76.15
2023-01-05T23:18:01.366Z,76.29
2023-01-05T23:20:27.786Z,75.92
2023-01-05T23:22:54.225Z,75.40
2023-01-05T23:25:20.649Z,76.09
2023-01-05T23:27:47.084Z,75.79
2023-01-05T23:30:13.556Z,75.05
2023-01-05T23:32:40.043Z,74.96
2023-01-05T23:35:07.922Z,75.84
2023-01-05T23:37:34.628Z,76.01
2023-01-05T23:40:01.045Z,75.85
2023-01-05T23:42:46.440Z,75.42
2023-01-05T23:45:14.047Z,75.10
2023-01-05T23:47:40.546Z,75.45
2023-01-05T23:50:07.576Z,75.49
2023-01-05T23:52:34.014Z,75.48
2023-01-05T23:55:00.431Z,75.33
2023-01-05T23:57:29.252Z,75.36
2023-01-05T23:59:55.701Z,75.76
